sensor_id;sensor_type;location;lat;lon;timestamp;P1;durP1;ratioP1;P2;durP2;ratioP2
11414;SDS011;5763;42.714;23.244;2023-05-17T00:00:35;14.35;;;12.85;;
11414;SDS011;5763;42.714;23.244;2023-05-17T00:03:03;17.83;;;13.25;;
11414;SDS011;5763;42.714;23.244;2023-05-17T00:05:30;14.57;;;12.98;;
11414;SDS011;5763;42.714;23.244;2023-05-17T00:07:57;16.02;;;12.80;;
11414;SDS011;5763;42.714;23.244;2023-05-17T00:10:23;15.30;;;13.68;;
11414;SDS011;5763;42.714;23.244;2023-05-17T00:12:50;14.82;;;12.93;;
11414;SDS011;5763;42.714;23.244;2023-05-17T00:15:17;14.60;;;13.07;;
11414;SDS011;5763;42.714;23.244;2023-05-17T00:17:43;14.40;;;12.85;;
11414;SDS011;5763;42.714;23.244;2023-05-17T00:20:12;14.70;;;12.90;;
11414;SDS011;5763;42.714;23.244;2023-05-17T00:22:38;15.65;;;13.70;;
11414;SDS011;5763;42.714;23.244;2023-05-17T00:25:07;15.65;;;13.57;;
11414;SDS011;5763;42.714;23.244;2023-05-17T00:27:34;15.50;;;12.90;;
11414;SDS011;5763;42.714;23.244;2023-05-17T00:30:01;14.50;;;12.65;;
11414;SDS011;5763;42.714;23.244;2023-05-17T00:32:27;14.90;;;12.40;;
11414;SDS011;5763;42.714;23.244;2023-05-17T00:34:54;14.05;;;12.15;;
11414;SDS011;5763;42.714;23.244;2023-05-17T00:37:22;13.75;;;10.00;;
11414;SDS011;5763;42.714;23.244;2023-05-17T00:39:49;13.63;;;10.85;;
11414;SDS011;5763;42.714;23.244;2023-05-17T00:42:17;11.10;;;9.25;;
11414;SDS011;5763;42.714;23.244;2023-05-17T00:44:43;10.40;;;9.13;;
11414;SDS011;5763;42.714;23.244;2023-05-17T00:47:10;12.68;;;9.13;;
11414;SDS011;5763;42.714;23.244;2023-05-17T00:49:37;12.55;;;10.30;;
11414;SDS011;5763;42.714;23.244;2023-05-17T00:52:04;10.70;;;9.60;;
11414;SDS011;5763;42.714;23.244;2023-05-17T00:54:32;12.20;;;9.13;;
11414;SDS011;5763;42.714;23.244;2023-05-17T00:57:00;10.23;;;9.07;;
11414;SDS011;5763;42.714;23.244;2023-05-17T00:59:27;10.50;;;9.38;;
11414;SDS011;5763;42.714;23.244;2023-05-17T01:01:54;11.13;;;8.95;;
11414;SDS011;5763;42.714;23.244;2023-05-17T01:04:22;11.82;;;9.27;;
11414;SDS011;5763;42.714;23.244;2023-05-17T01:06:49;12.75;;;9.68;;
11414;SDS011;5763;42.714;23.244;2023-05-17T01:09:16;12.25;;;9.88;;
11414;SDS011;5763;42.714;23.244;2023-05-17T01:11:47;11.45;;;10.15;;
11414;SDS011;5763;42.714;23.244;2023-05-17T01:14:29;13.80;;;9.27;;
11414;SDS011;5763;42.714;23.244;2023-05-17T01:17:11;12.00;;;8.48;;
11414;SDS011;5763;42.714;23.244;2023-05-17T01:22:38;10.07;;;8.63;;
11414;SDS011;5763;42.714;23.244;2023-05-17T01:25:11;12.45;;;9.98;;
11414;SDS011;5763;42.714;23.244;2023-05-17T01:27:49;13.18;;;9.55;;
11414;SDS011;5763;42.714;23.244;2023-05-17T01:30:19;11.45;;;9.25;;
11414;SDS011;5763;42.714;23.244;2023-05-17T01:32:51;12.75;;;8.90;;
11414;SDS011;5763;42.714;23.244;2023-05-17T01:35:20;11.05;;;9.07;;
11414;SDS011;5763;42.714;23.244;2023-05-17T01:37:47;12.95;;;8.88;;
11414;SDS011;5763;42.714;23.244;2023-05-17T01:40:14;11.52;;;9.80;;
11414;SDS011;5763;42.714;23.244;2023-05-17T01:42:43;14.10;;;9.48;;
11414;SDS011;5763;42.714;23.244;2023-05-17T01:45:14;10.75;;;9.43;;
11414;SDS011;5763;42.714;23.244;2023-05-17T01:47:47;12.43;;;9.73;;
11414;SDS011;5763;42.714;23.244;2023-05-17T01:50:22;11.77;;;10.35;;
11414;SDS011;5763;42.714;23.244;2023-05-17T01:52:52;14.57;;;9.45;;
11414;SDS011;5763;42.714;23.244;2023-05-17T01:55:25;11.32;;;9.05;;
11414;SDS011;5763;42.714;23.244;2023-05-17T01:58:06;9.93;;;8.82;;
11414;SDS011;5763;42.714;23.244;2023-05-17T02:00:35;12.05;;;9.45;;
11414;SDS011;5763;42.714;23.244;2023-05-17T02:03:04;11.68;;;9.18;;
11414;SDS011;5763;42.714;23.244;2023-05-17T02:05:30;11.73;;;9.20;;
11414;SDS011;5763;42.714;23.244;2023-05-17T02:07:57;11.75;;;9.13;;
11414;SDS011;5763;42.714;23.244;2023-05-17T02:10:24;15.07;;;9.13;;
11414;SDS011;5763;42.714;23.244;2023-05-17T02:12:51;10.30;;;8.73;;
11414;SDS011;5763;42.714;23.244;2023-05-17T02:15:17;11.65;;;8.95;;
11414;SDS011;5763;42.714;23.244;2023-05-17T02:17:45;11.75;;;10.13;;
11414;SDS011;5763;42.714;23.244;2023-05-17T02:20:12;14.00;;;9.15;;
11414;SDS011;5763;42.714;23.244;2023-05-17T02:22:39;10.20;;;8.95;;
11414;SDS011;5763;42.714;23.244;2023-05-17T02:25:06;12.57;;;9.05;;
11414;SDS011;5763;42.714;23.244;2023-05-17T02:27:33;11.55;;;9.93;;
11414;SDS011;5763;42.714;23.244;2023-05-17T02:30:00;11.48;;;9.90;;
11414;SDS011;5763;42.714;23.244;2023-05-17T02:32:28;12.27;;;9.07;;
11414;SDS011;5763;42.714;23.244;2023-05-17T02:34:56;12.90;;;9.60;;
11414;SDS011;5763;42.714;23.244;2023-05-17T02:37:23;12.32;;;9.98;;
11414;SDS011;5763;42.714;23.244;2023-05-17T02:39:49;14.18;;;11.32;;
11414;SDS011;5763;42.714;23.244;2023-05-17T02:42:16;12.15;;;10.48;;
11414;SDS011;5763;42.714;23.244;2023-05-17T02:44:43;11.45;;;9.35;;
11414;SDS011;5763;42.714;23.244;2023-05-17T02:47:10;10.48;;;9.38;;
11414;SDS011;5763;42.714;23.244;2023-05-17T02:49:36;10.10;;;8.85;;
11414;SDS011;5763;42.714;23.244;2023-05-17T02:52:05;11.18;;;9.40;;
11414;SDS011;5763;42.714;23.244;2023-05-17T02:54:32;11.63;;;9.15;;
11414;SDS011;5763;42.714;23.244;2023-05-17T02:56:58;12.40;;;8.82;;
11414;SDS011;5763;42.714;23.244;2023-05-17T02:59:25;11.57;;;8.57;;
11414;SDS011;5763;42.714;23.244;2023-05-17T03:01:52;10.70;;;8.80;;
11414;SDS011;5763;42.714;23.244;2023-05-17T03:04:18;10.60;;;7.95;;
11414;SDS011;5763;42.714;23.244;2023-05-17T03:06:45;12.60;;;8.38;;
11414;SDS011;5763;42.714;23.244;2023-05-17T03:09:13;12.32;;;7.70;;
11414;SDS011;5763;42.714;23.244;2023-05-17T03:11:40;11.77;;;8.45;;
11414;SDS011;5763;42.714;23.244;2023-05-17T03:14:07;12.98;;;8.65;;
11414;SDS011;5763;42.714;23.244;2023-05-17T03:16:33;11.15;;;8.43;;
11414;SDS011;5763;42.714;23.244;2023-05-17T03:19:00;9.38;;;7.70;;
11414;SDS011;5763;42.714;23.244;2023-05-17T03:21:27;13.25;;;8.73;;
11414;SDS011;5763;42.714;23.244;2023-05-17T03:23:53;10.18;;;8.52;;
11414;SDS011;5763;42.714;23.244;2023-05-17T03:26:21;10.48;;;8.25;;
11414;SDS011;5763;42.714;23.244;2023-05-17T03:28:49;10.65;;;8.90;;
11414;SDS011;5763;42.714;23.244;2023-05-17T03:31:15;11.48;;;8.88;;
11414;SDS011;5763;42.714;23.244;2023-05-17T03:33:43;12.05;;;9.45;;
11414;SDS011;5763;42.714;23.244;2023-05-17T03:36:09;11.85;;;9.15;;
11414;SDS011;5763;42.714;23.244;2023-05-17T03:38:36;11.30;;;9.40;;
11414;SDS011;5763;42.714;23.244;2023-05-17T03:41:03;11.95;;;9.80;;
11414;SDS011;5763;42.714;23.244;2023-05-17T03:43:31;10.95;;;9.85;;
11414;SDS011;5763;42.714;23.244;2023-05-17T03:45:58;13.50;;;10.05;;
11414;SDS011;5763;42.714;23.244;2023-05-17T03:48:25;13.25;;;10.45;;
11414;SDS011;5763;42.714;23.244;2023-05-17T03:50:52;11.32;;;9.65;;
11414;SDS011;5763;42.714;23.244;2023-05-17T03:53:18;11.05;;;9.10;;
11414;SDS011;5763;42.714;23.244;2023-05-17T03:55:45;8.77;;;7.88;;
11414;SDS011;5763;42.714;23.244;2023-05-17T03:58:12;10.15;;;8.93;;
11414;SDS011;5763;42.714;23.244;2023-05-17T04:00:41;14.00;;;9.48;;
11414;SDS011;5763;42.714;23.244;2023-05-17T04:03:07;14.05;;;10.50;;
11414;SDS011;5763;42.714;23.244;2023-05-17T04:05:34;15.55;;;10.63;;
11414;SDS011;5763;42.714;23.244;2023-05-17T04:08:00;14.18;;;9.90;;
11414;SDS011;5763;42.714;23.244;2023-05-17T04:10:27;13.55;;;9.55;;
11414;SDS011;5763;42.714;23.244;2023-05-17T04:12:54;16.02;;;10.10;;
11414;SDS011;5763;42.714;23.244;2023-05-17T04:15:21;10.20;;;9.18;;
11414;SDS011;5763;42.714;23.244;2023-05-17T04:17:49;12.82;;;9.55;;
11414;SDS011;5763;42.714;23.244;2023-05-17T04:20:16;14.88;;;9.70;;
11414;SDS011;5763;42.714;23.244;2023-05-17T04:22:42;14.90;;;10.57;;
11414;SDS011;5763;42.714;23.244;2023-05-17T04:25:09;13.65;;;10.23;;
11414;SDS011;5763;42.714;23.244;2023-05-17T04:27:36;14.57;;;11.27;;
11414;SDS011;5763;42.714;23.244;2023-05-17T04:30:03;13.25;;;10.30;;
11414;SDS011;5763;42.714;23.244;2023-05-17T04:32:31;12.95;;;9.85;;
11414;SDS011;5763;42.714;23.244;2023-05-17T04:34:59;13.13;;;10.35;;
11414;SDS011;5763;42.714;23.244;2023-05-17T04:37:26;13.88;;;10.82;;
11414;SDS011;5763;42.714;23.244;2023-05-17T04:39:53;15.38;;;12.45;;
11414;SDS011;5763;42.714;23.244;2023-05-17T04:42:19;19.35;;;13.75;;
11414;SDS011;5763;42.714;23.244;2023-05-17T04:44:46;19.40;;;12.95;;
11414;SDS011;5763;42.714;23.244;2023-05-17T04:47:13;16.95;;;13.35;;
11414;SDS011;5763;42.714;23.244;2023-05-17T04:49:40;19.23;;;13.32;;
11414;SDS011;5763;42.714;23.244;2023-05-17T04:52:08;19.23;;;13.77;;
11414;SDS011;5763;42.714;23.244;2023-05-17T04:54:35;19.35;;;13.77;;
11414;SDS011;5763;42.714;23.244;2023-05-17T04:57:02;18.00;;;13.95;;
11414;SDS011;5763;42.714;23.244;2023-05-17T04:59:29;18.75;;;15.35;;
11414;SDS011;5763;42.714;23.244;2023-05-17T05:01:55;17.85;;;14.18;;
11414;SDS011;5763;42.714;23.244;2023-05-17T05:04:22;18.83;;;14.65;;
11414;SDS011;5763;42.714;23.244;2023-05-17T05:06:49;21.27;;;15.63;;
11414;SDS011;5763;42.714;23.244;2023-05-17T05:09:17;21.00;;;15.68;;
11414;SDS011;5763;42.714;23.244;2023-05-17T05:11:44;21.00;;;15.50;;
11414;SDS011;5763;42.714;23.244;2023-05-17T05:14:11;20.23;;;16.02;;
11414;SDS011;5763;42.714;23.244;2023-05-17T05:16:38;16.85;;;13.85;;
11414;SDS011;5763;42.714;23.244;2023-05-17T05:19:04;17.17;;;15.38;;
11414;SDS011;5763;42.714;23.244;2023-05-17T05:21:33;18.83;;;15.15;;
11414;SDS011;5763;42.714;23.244;2023-05-17T05:23:59;19.58;;;15.00;;
11414;SDS011;5763;42.714;23.244;2023-05-17T05:26:27;17.58;;;15.15;;
11414;SDS011;5763;42.714;23.244;2023-05-17T05:28:54;18.27;;;14.40;;
11414;SDS011;5763;42.714;23.244;2023-05-17T05:31:22;17.77;;;13.68;;
11414;SDS011;5763;42.714;23.244;2023-05-17T05:33:48;18.15;;;14.40;;
11414;SDS011;5763;42.714;23.244;2023-05-17T05:36:15;17.63;;;14.35;;
11414;SDS011;5763;42.714;23.244;2023-05-17T05:38:42;18.25;;;14.77;;
11414;SDS011;5763;42.714;23.244;2023-05-17T05:41:08;25.17;;;15.70;;
11414;SDS011;5763;42.714;23.244;2023-05-17T05:43:37;20.80;;;15.65;;
11414;SDS011;5763;42.714;23.244;2023-05-17T05:46:03;18.77;;;15.55;;
11414;SDS011;5763;42.714;23.244;2023-05-17T05:48:31;17.75;;;14.85;;
11414;SDS011;5763;42.714;23.244;2023-05-17T05:50:58;20.30;;;15.60;;
11414;SDS011;5763;42.714;23.244;2023-05-17T05:53:25;20.08;;;15.50;;
11414;SDS011;5763;42.714;23.244;2023-05-17T05:55:52;19.00;;;15.30;;
11414;SDS011;5763;42.714;23.244;2023-05-17T05:58:18;22.95;;;16.92;;
11414;SDS011;5763;42.714;23.244;2023-05-17T06:00:46;19.17;;;15.55;;
11414;SDS011;5763;42.714;23.244;2023-05-17T06:03:13;24.25;;;16.75;;
11414;SDS011;5763;42.714;23.244;2023-05-17T06:05:41;20.30;;;17.23;;
11414;SDS011;5763;42.714;23.244;2023-05-17T06:08:08;21.83;;;15.35;;
11414;SDS011;5763;42.714;23.244;2023-05-17T06:10:35;19.90;;;14.82;;
11414;SDS011;5763;42.714;23.244;2023-05-17T06:13:02;18.85;;;13.40;;
11414;SDS011;5763;42.714;23.244;2023-05-17T06:15:29;17.77;;;12.30;;
11414;SDS011;5763;42.714;23.244;2023-05-17T06:17:58;17.33;;;12.90;;
11414;SDS011;5763;42.714;23.244;2023-05-17T06:20:25;17.15;;;12.57;;
11414;SDS011;5763;42.714;23.244;2023-05-17T06:22:52;15.88;;;12.02;;
11414;SDS011;5763;42.714;23.244;2023-05-17T06:25:19;16.45;;;11.80;;
11414;SDS011;5763;42.714;23.244;2023-05-17T06:27:46;12.73;;;10.45;;
11414;SDS011;5763;42.714;23.244;2023-05-17T06:30:12;14.48;;;11.05;;
11414;SDS011;5763;42.714;23.244;2023-05-17T06:32:39;15.27;;;11.52;;
11414;SDS011;5763;42.714;23.244;2023-05-17T06:35:08;13.73;;;10.75;;
11414;SDS011;5763;42.714;23.244;2023-05-17T06:37:36;15.27;;;11.00;;
11414;SDS011;5763;42.714;23.244;2023-05-17T06:40:03;14.82;;;11.23;;
11414;SDS011;5763;42.714;23.244;2023-05-17T06:42:31;14.80;;;10.57;;
11414;SDS011;5763;42.714;23.244;2023-05-17T06:44:58;11.32;;;9.43;;
11414;SDS011;5763;42.714;23.244;2023-05-17T06:47:25;13.95;;;10.15;;
11414;SDS011;5763;42.714;23.244;2023-05-17T06:49:52;14.32;;;11.00;;
11414;SDS011;5763;42.714;23.244;2023-05-17T06:52:20;16.75;;;10.57;;
11414;SDS011;5763;42.714;23.244;2023-05-17T06:54:47;14.98;;;10.18;;
11414;SDS011;5763;42.714;23.244;2023-05-17T06:57:14;15.23;;;10.05;;
11414;SDS011;5763;42.714;23.244;2023-05-17T06:59:41;14.63;;;10.63;;
11414;SDS011;5763;42.714;23.244;2023-05-17T07:02:08;14.10;;;9.57;;
11414;SDS011;5763;42.714;23.244;2023-05-17T07:04:34;13.43;;;10.10;;
11414;SDS011;5763;42.714;23.244;2023-05-17T07:07:01;11.43;;;8.95;;
11414;SDS011;5763;42.714;23.244;2023-05-17T07:09:29;11.70;;;8.80;;
11414;SDS011;5763;42.714;23.244;2023-05-17T07:11:56;12.18;;;8.73;;
11414;SDS011;5763;42.714;23.244;2023-05-17T07:14:23;11.43;;;8.80;;
11414;SDS011;5763;42.714;23.244;2023-05-17T07:16:50;11.40;;;7.47;;
11414;SDS011;5763;42.714;23.244;2023-05-17T07:19:17;12.75;;;7.80;;
11414;SDS011;5763;42.714;23.244;2023-05-17T07:21:43;10.45;;;7.65;;
11414;SDS011;5763;42.714;23.244;2023-05-17T07:24:10;13.05;;;8.18;;
11414;SDS011;5763;42.714;23.244;2023-05-17T07:26:38;11.05;;;8.15;;
11414;SDS011;5763;42.714;23.244;2023-05-17T07:29:05;10.60;;;7.65;;
11414;SDS011;5763;42.714;23.244;2023-05-17T07:31:31;11.85;;;9.05;;
11414;SDS011;5763;42.714;23.244;2023-05-17T07:33:58;11.82;;;8.07;;
11414;SDS011;5763;42.714;23.244;2023-05-17T07:36:25;14.13;;;8.13;;
11414;SDS011;5763;42.714;23.244;2023-05-17T07:38:54;12.32;;;8.55;;
11414;SDS011;5763;42.714;23.244;2023-05-17T07:41:21;11.10;;;8.25;;
11414;SDS011;5763;42.714;23.244;2023-05-17T07:43:49;11.30;;;8.35;;
11414;SDS011;5763;42.714;23.244;2023-05-17T07:46:16;14.65;;;7.78;;
11414;SDS011;5763;42.714;23.244;2023-05-17T07:48:43;11.93;;;8.73;;
11414;SDS011;5763;42.714;23.244;2023-05-17T07:51:10;10.32;;;8.55;;
11414;SDS011;5763;42.714;23.244;2023-05-17T07:53:37;12.68;;;9.20;;
11414;SDS011;5763;42.714;23.244;2023-05-17T07:56:03;12.88;;;9.38;;
11414;SDS011;5763;42.714;23.244;2023-05-17T07:58:30;14.95;;;10.23;;
11414;SDS011;5763;42.714;23.244;2023-05-17T08:00:59;13.00;;;9.90;;
11414;SDS011;5763;42.714;23.244;2023-05-17T08:03:26;13.00;;;9.30;;
11414;SDS011;5763;42.714;23.244;2023-05-17T08:05:53;17.15;;;10.43;;
11414;SDS011;5763;42.714;23.244;2023-05-17T08:08:20;13.32;;;9.75;;
11414;SDS011;5763;42.714;23.244;2023-05-17T08:10:47;12.00;;;9.50;;
11414;SDS011;5763;42.714;23.244;2023-05-17T08:13:14;13.90;;;9.77;;
11414;SDS011;5763;42.714;23.244;2023-05-17T08:15:40;13.48;;;8.77;;
11414;SDS011;5763;42.714;23.244;2023-05-17T08:18:08;15.23;;;9.93;;
11414;SDS011;5763;42.714;23.244;2023-05-17T08:20:35;15.45;;;10.60;;
11414;SDS011;5763;42.714;23.244;2023-05-17T08:23:02;15.52;;;10.82;;
11414;SDS011;5763;42.714;23.244;2023-05-17T08:25:29;14.77;;;10.32;;
11414;SDS011;5763;42.714;23.244;2023-05-17T08:27:56;13.40;;;8.57;;
11414;SDS011;5763;42.714;23.244;2023-05-17T08:30:23;14.05;;;9.45;;
11414;SDS011;5763;42.714;23.244;2023-05-17T08:32:49;13.85;;;9.32;;
11414;SDS011;5763;42.714;23.244;2023-05-17T08:35:18;15.50;;;10.00;;
11414;SDS011;5763;42.714;23.244;2023-05-17T08:37:45;16.63;;;8.93;;
11414;SDS011;5763;42.714;23.244;2023-05-17T08:40:12;12.52;;;8.73;;
11414;SDS011;5763;42.714;23.244;2023-05-17T08:42:44;11.25;;;9.18;;
11414;SDS011;5763;42.714;23.244;2023-05-17T08:45:11;12.23;;;9.25;;
11414;SDS011;5763;42.714;23.244;2023-05-17T08:47:38;11.50;;;8.98;;
11414;SDS011;5763;42.714;23.244;2023-05-17T08:50:08;12.48;;;8.90;;
11414;SDS011;5763;42.714;23.244;2023-05-17T08:52:38;14.73;;;9.38;;
11414;SDS011;5763;42.714;23.244;2023-05-17T08:55:06;13.77;;;10.25;;
11414;SDS011;5763;42.714;23.244;2023-05-17T08:57:34;16.45;;;10.48;;
11414;SDS011;5763;42.714;23.244;2023-05-17T09:00:02;15.25;;;10.60;;
11414;SDS011;5763;42.714;23.244;2023-05-17T09:02:30;14.77;;;10.40;;
11414;SDS011;5763;42.714;23.244;2023-05-17T09:04:58;14.07;;;9.52;;
11414;SDS011;5763;42.714;23.244;2023-05-17T09:07:25;11.90;;;8.95;;
11414;SDS011;5763;42.714;23.244;2023-05-17T09:09:53;10.30;;;8.93;;
11414;SDS011;5763;42.714;23.244;2023-05-17T09:12:20;11.90;;;7.68;;
11414;SDS011;5763;42.714;23.244;2023-05-17T09:14:47;10.95;;;8.02;;
11414;SDS011;5763;42.714;23.244;2023-05-17T09:17:14;15.70;;;8.85;;
11414;SDS011;5763;42.714;23.244;2023-05-17T09:19:43;12.68;;;9.00;;
11414;SDS011;5763;42.714;23.244;2023-05-17T09:22:11;12.40;;;9.00;;
11414;SDS011;5763;42.714;23.244;2023-05-17T09:24:39;12.35;;;9.15;;
11414;SDS011;5763;42.714;23.244;2023-05-17T09:27:08;13.32;;;8.75;;
11414;SDS011;5763;42.714;23.244;2023-05-17T09:29:40;12.00;;;8.80;;
11414;SDS011;5763;42.714;23.244;2023-05-17T09:32:10;14.05;;;9.30;;
11414;SDS011;5763;42.714;23.244;2023-05-17T09:34:39;13.45;;;8.57;;
11414;SDS011;5763;42.714;23.244;2023-05-17T09:37:10;12.07;;;9.07;;
11414;SDS011;5763;42.714;23.244;2023-05-17T09:39:38;18.27;;;9.45;;
11414;SDS011;5763;42.714;23.244;2023-05-17T09:42:05;13.88;;;9.02;;
11414;SDS011;5763;42.714;23.244;2023-05-17T09:44:45;12.10;;;8.80;;
11414;SDS011;5763;42.714;23.244;2023-05-17T09:47:20;13.63;;;8.82;;
11414;SDS011;5763;42.714;23.244;2023-05-17T09:49:48;17.13;;;9.02;;
11414;SDS011;5763;42.714;23.244;2023-05-17T09:52:16;12.70;;;8.50;;
11414;SDS011;5763;42.714;23.244;2023-05-17T09:54:46;15.25;;;8.25;;
11414;SDS011;5763;42.714;23.244;2023-05-17T09:57:18;11.27;;;8.02;;
11414;SDS011;5763;42.714;23.244;2023-05-17T09:59:46;11.57;;;8.13;;
11414;SDS011;5763;42.714;23.244;2023-05-17T10:02:16;10.90;;;7.55;;
11414;SDS011;5763;42.714;23.244;2023-05-17T10:04:47;16.13;;;8.63;;
11414;SDS011;5763;42.714;23.244;2023-05-17T10:07:16;14.95;;;8.70;;
11414;SDS011;5763;42.714;23.244;2023-05-17T10:09:45;14.70;;;8.48;;
11414;SDS011;5763;42.714;23.244;2023-05-17T10:12:14;11.95;;;7.50;;
11414;SDS011;5763;42.714;23.244;2023-05-17T10:14:42;13.15;;;7.53;;
11414;SDS011;5763;42.714;23.244;2023-05-17T10:17:11;11.57;;;7.47;;
11414;SDS011;5763;42.714;23.244;2023-05-17T10:19:39;14.45;;;7.18;;
11414;SDS011;5763;42.714;23.244;2023-05-17T10:22:06;14.98;;;7.75;;
11414;SDS011;5763;42.714;23.244;2023-05-17T10:24:33;12.85;;;7.22;;
11414;SDS011;5763;42.714;23.244;2023-05-17T10:27:01;11.75;;;7.30;;
11414;SDS011;5763;42.714;23.244;2023-05-17T10:29:29;13.52;;;7.70;;
11414;SDS011;5763;42.714;23.244;2023-05-17T10:31:58;8.88;;;7.00;;
11414;SDS011;5763;42.714;23.244;2023-05-17T10:34:33;11.77;;;6.80;;
11414;SDS011;5763;42.714;23.244;2023-05-17T10:37:01;10.70;;;6.75;;
11414;SDS011;5763;42.714;23.244;2023-05-17T10:39:29;14.35;;;6.13;;
11414;SDS011;5763;42.714;23.244;2023-05-17T10:41:58;10.30;;;6.88;;
11414;SDS011;5763;42.714;23.244;2023-05-17T10:44:28;9.32;;;6.75;;
11414;SDS011;5763;42.714;23.244;2023-05-17T10:46:57;12.75;;;6.97;;
11414;SDS011;5763;42.714;23.244;2023-05-17T10:49:25;9.50;;;6.43;;
11414;SDS011;5763;42.714;23.244;2023-05-17T10:51:57;10.63;;;6.68;;
11414;SDS011;5763;42.714;23.244;2023-05-17T10:54:33;12.93;;;6.93;;
11414;SDS011;5763;42.714;23.244;2023-05-17T10:57:01;9.23;;;6.10;;
11414;SDS011;5763;42.714;23.244;2023-05-17T10:59:30;11.45;;;6.13;;
11414;SDS011;5763;42.714;23.244;2023-05-17T11:01:57;10.18;;;6.90;;
11414;SDS011;5763;42.714;23.244;2023-05-17T11:04:25;12.30;;;7.07;;
11414;SDS011;5763;42.714;23.244;2023-05-17T11:09:50;10.82;;;7.05;;
11414;SDS011;5763;42.714;23.244;2023-05-17T11:12:29;12.32;;;7.15;;
11414;SDS011;5763;42.714;23.244;2023-05-17T11:14:58;9.15;;;6.82;;
11414;SDS011;5763;42.714;23.244;2023-05-17T11:17:26;11.18;;;7.40;;
11414;SDS011;5763;42.714;23.244;2023-05-17T11:20:06;11.93;;;6.75;;
11414;SDS011;5763;42.714;23.244;2023-05-17T11:22:37;14.25;;;6.60;;
11414;SDS011;5763;42.714;23.244;2023-05-17T11:25:07;12.00;;;6.75;;
11414;SDS011;5763;42.714;23.244;2023-05-17T11:27:36;9.25;;;6.05;;
11414;SDS011;5763;42.714;23.244;2023-05-17T11:32:53;12.48;;;7.25;;
11414;SDS011;5763;42.714;23.244;2023-05-17T11:35:25;11.73;;;7.22;;
11414;SDS011;5763;42.714;23.244;2023-05-17T11:38:10;11.00;;;7.53;;
11414;SDS011;5763;42.714;23.244;2023-05-17T11:40:39;10.85;;;7.28;;
11414;SDS011;5763;42.714;23.244;2023-05-17T11:43:13;9.35;;;7.15;;
11414;SDS011;5763;42.714;23.244;2023-05-17T11:45:42;12.93;;;7.38;;
11414;SDS011;5763;42.714;23.244;2023-05-17T11:48:10;12.57;;;7.82;;
11414;SDS011;5763;42.714;23.244;2023-05-17T11:50:38;12.52;;;8.07;;
11414;SDS011;5763;42.714;23.244;2023-05-17T11:53:06;12.50;;;7.43;;
11414;SDS011;5763;42.714;23.244;2023-05-17T11:55:36;12.05;;;7.40;;
11414;SDS011;5763;42.714;23.244;2023-05-17T11:58:05;12.85;;;8.25;;
11414;SDS011;5763;42.714;23.244;2023-05-17T12:00:33;14.93;;;8.02;;
11414;SDS011;5763;42.714;23.244;2023-05-17T12:03:13;12.02;;;7.70;;
11414;SDS011;5763;42.714;23.244;2023-05-17T12:05:44;13.70;;;7.88;;
11414;SDS011;5763;42.714;23.244;2023-05-17T12:08:14;13.27;;;8.13;;
11414;SDS011;5763;42.714;23.244;2023-05-17T12:10:47;11.95;;;8.73;;
11414;SDS011;5763;42.714;23.244;2023-05-17T12:13:14;10.85;;;6.90;;
11414;SDS011;5763;42.714;23.244;2023-05-17T12:15:43;13.57;;;7.70;;
11414;SDS011;5763;42.714;23.244;2023-05-17T12:18:12;15.13;;;7.40;;
11414;SDS011;5763;42.714;23.244;2023-05-17T12:20:51;10.27;;;6.88;;
11414;SDS011;5763;42.714;23.244;2023-05-17T12:23:26;11.63;;;7.00;;
11414;SDS011;5763;42.714;23.244;2023-05-17T12:26:01;12.50;;;7.32;;
11414;SDS011;5763;42.714;23.244;2023-05-17T12:28:32;12.88;;;7.20;;
11414;SDS011;5763;42.714;23.244;2023-05-17T12:31:00;11.40;;;7.70;;
11414;SDS011;5763;42.714;23.244;2023-05-17T12:33:28;10.48;;;6.72;;
11414;SDS011;5763;42.714;23.244;2023-05-17T12:35:57;10.82;;;7.05;;
11414;SDS011;5763;42.714;23.244;2023-05-17T12:38:25;7.85;;;6.03;;
11414;SDS011;5763;42.714;23.244;2023-05-17T12:40:56;12.20;;;6.43;;
11414;SDS011;5763;42.714;23.244;2023-05-17T12:43:23;7.97;;;6.15;;
11414;SDS011;5763;42.714;23.244;2023-05-17T12:45:51;8.23;;;6.13;;
11414;SDS011;5763;42.714;23.244;2023-05-17T12:48:18;9.75;;;6.20;;
11414;SDS011;5763;42.714;23.244;2023-05-17T12:50:50;13.88;;;7.03;;
11414;SDS011;5763;42.714;23.244;2023-05-17T12:53:19;9.77;;;6.85;;
11414;SDS011;5763;42.714;23.244;2023-05-17T12:55:48;11.23;;;7.18;;
11414;SDS011;5763;42.714;23.244;2023-05-17T12:58:14;12.32;;;6.93;;
11414;SDS011;5763;42.714;23.244;2023-05-17T13:00:54;9.88;;;7.65;;
11414;SDS011;5763;42.714;23.244;2023-05-17T13:03:23;10.45;;;7.80;;
11414;SDS011;5763;42.714;23.244;2023-05-17T13:05:56;11.32;;;7.88;;
11414;SDS011;5763;42.714;23.244;2023-05-17T13:08:24;8.63;;;7.38;;
11414;SDS011;5763;42.714;23.244;2023-05-17T13:10:52;10.65;;;7.30;;
11414;SDS011;5763;42.714;23.244;2023-05-17T13:13:19;11.65;;;7.03;;
11414;SDS011;5763;42.714;23.244;2023-05-17T13:15:46;9.05;;;6.35;;
11414;SDS011;5763;42.714;23.244;2023-05-17T13:18:13;9.55;;;6.75;;
11414;SDS011;5763;42.714;23.244;2023-05-17T13:20:40;13.15;;;7.70;;
11414;SDS011;5763;42.714;23.244;2023-05-17T13:23:08;12.35;;;7.20;;
11414;SDS011;5763;42.714;23.244;2023-05-17T13:25:34;11.00;;;6.82;;
11414;SDS011;5763;42.714;23.244;2023-05-17T13:28:03;12.57;;;7.80;;
11414;SDS011;5763;42.714;23.244;2023-05-17T13:30:30;11.52;;;7.30;;
11414;SDS011;5763;42.714;23.244;2023-05-17T13:32:56;8.90;;;6.30;;
11414;SDS011;5763;42.714;23.244;2023-05-17T13:35:23;9.77;;;6.55;;
11414;SDS011;5763;42.714;23.244;2023-05-17T13:37:50;12.60;;;6.60;;
11414;SDS011;5763;42.714;23.244;2023-05-17T13:40:17;9.90;;;6.20;;
11414;SDS011;5763;42.714;23.244;2023-05-17T13:42:44;10.00;;;6.80;;
11414;SDS011;5763;42.714;23.244;2023-05-17T13:45:12;8.55;;;5.53;;
11414;SDS011;5763;42.714;23.244;2023-05-17T13:47:39;9.73;;;6.05;;
11414;SDS011;5763;42.714;23.244;2023-05-17T13:50:06;12.02;;;6.03;;
11414;SDS011;5763;42.714;23.244;2023-05-17T13:52:34;7.20;;;5.88;;
11414;SDS011;5763;42.714;23.244;2023-05-17T13:55:01;10.75;;;6.38;;
11414;SDS011;5763;42.714;23.244;2023-05-17T13:57:28;7.30;;;5.55;;
11414;SDS011;5763;42.714;23.244;2023-05-17T13:59:55;8.38;;;5.75;;
11414;SDS011;5763;42.714;23.244;2023-05-17T14:02:23;9.02;;;5.30;;
11414;SDS011;5763;42.714;23.244;2023-05-17T14:04:50;8.20;;;5.53;;
11414;SDS011;5763;42.714;23.244;2023-05-17T14:07:16;9.27;;;5.40;;
11414;SDS011;5763;42.714;23.244;2023-05-17T14:09:43;9.90;;;4.75;;
11414;SDS011;5763;42.714;23.244;2023-05-17T14:12:10;7.30;;;4.55;;
11414;SDS011;5763;42.714;23.244;2023-05-17T14:14:37;7.97;;;4.90;;
11414;SDS011;5763;42.714;23.244;2023-05-17T14:17:04;9.00;;;4.68;;
11414;SDS011;5763;42.714;23.244;2023-05-17T14:19:32;9.18;;;4.82;;
11414;SDS011;5763;42.714;23.244;2023-05-17T14:21:58;7.22;;;4.63;;
11414;SDS011;5763;42.714;23.244;2023-05-17T14:24:25;11.63;;;5.15;;
11414;SDS011;5763;42.714;23.244;2023-05-17T14:26:52;9.30;;;5.15;;
11414;SDS011;5763;42.714;23.244;2023-05-17T14:29:19;7.18;;;4.97;;
11414;SDS011;5763;42.714;23.244;2023-05-17T14:31:45;8.27;;;4.65;;
11414;SDS011;5763;42.714;23.244;2023-05-17T14:34:12;11.13;;;5.50;;
11414;SDS011;5763;42.714;23.244;2023-05-17T14:36:40;7.07;;;4.32;;
11414;SDS011;5763;42.714;23.244;2023-05-17T14:39:07;6.80;;;4.32;;
11414;SDS011;5763;42.714;23.244;2023-05-17T14:41:34;7.80;;;4.70;;
11414;SDS011;5763;42.714;23.244;2023-05-17T14:44:03;7.18;;;4.60;;
11414;SDS011;5763;42.714;23.244;2023-05-17T14:46:30;9.18;;;5.38;;